createdAt,value
2018-06-16T00:00:08.934Z,1.40
2018-06-16T00:01:08.928Z,1.40
2018-06-16T00:02:08.921Z,1.70
2018-06-16T00:03:08.918Z,1.80
2018-06-16T00:04:08.910Z,1.50
2018-06-16T00:05:08.904Z,1.40
2018-06-16T00:06:08.897Z,1.30
2018-06-16T00:07:08.892Z,1.30
2018-06-16T00:08:08.886Z,1.60
2018-06-16T00:09:08.885Z,1.40
2018-06-16T00:10:08.874Z,1.60
2018-06-16T00:11:08.868Z,1.70
2018-06-16T00:12:09.065Z,1.40
2018-06-16T00:13:08.857Z,1.60
2018-06-16T00:14:08.850Z,2.00
2018-06-16T00:15:08.844Z,1.30
2018-06-16T00:16:08.838Z,2.10
2018-06-16T00:17:08.833Z,1.40
2018-06-16T00:18:08.826Z,1.10
2018-06-16T00:19:08.825Z,1.40
2018-06-16T00:20:08.814Z,1.40
2018-06-16T00:21:08.808Z,1.50
2018-06-16T00:22:08.812Z,1.60
2018-06-16T00:23:08.796Z,1.80
2018-06-16T00:24:08.790Z,1.80
2018-06-16T00:25:08.784Z,1.30
2018-06-16T00:26:08.781Z,1.30
2018-06-16T00:27:08.771Z,2.20
2018-06-16T00:28:08.765Z,1.10
2018-06-16T00:29:08.766Z,1.50
2018-06-16T00:30:08.759Z,2.20
2018-06-16T00:31:08.746Z,1.70
2018-06-16T00:32:08.746Z,1.70
2018-06-16T00:33:08.742Z,1.20
2018-06-16T00:34:08.729Z,1.50
2018-06-16T00:35:08.722Z,1.40
2018-06-16T00:36:08.717Z,1.80
2018-06-16T00:37:08.711Z,1.40
2018-06-16T00:38:08.703Z,1.40
2018-06-16T00:39:08.697Z,1.60
2018-06-16T00:40:08.692Z,1.20
2018-06-16T00:41:08.696Z,1.90
2018-06-16T00:42:08.680Z,1.80
2018-06-16T00:43:08.673Z,1.30
2018-06-16T00:44:08.668Z,1.20
2018-06-16T00:45:08.661Z,1.60
2018-06-16T00:46:08.654Z,1.10
2018-06-16T00:47:08.653Z,1.20
2018-06-16T00:48:08.644Z,1.40
2018-06-16T00:49:08.636Z,2.00
2018-06-16T00:50:08.629Z,1.80
2018-06-16T00:51:08.627Z,1.30
2018-06-16T00:52:08.619Z,1.60
2018-06-16T00:53:08.617Z,1.10
2018-06-16T00:54:08.604Z,1.80
2018-06-16T00:55:08.598Z,1.80
2018-06-16T00:56:08.591Z,1.70
2018-06-16T00:57:08.589Z,1.80
2018-06-16T00:58:08.579Z,1.10
2018-06-16T00:59:08.573Z,1.50
2018-06-16T01:00:08.568Z,1.60
2018-06-16T01:01:08.572Z,1.60
2018-06-16T01:02:08.554Z,1.20
2018-06-16T01:03:08.549Z,1.70
2018-06-16T01:04:08.541Z,1.30
2018-06-16T01:05:08.535Z,1.50
2018-06-16T01:06:08.528Z,2.30
2018-06-16T01:07:08.521Z,1.70
2018-06-16T01:08:08.517Z,1.10
2018-06-16T01:09:08.509Z,1.30
2018-06-16T01:10:08.502Z,0.90
2018-06-16T01:11:08.499Z,1.70
2018-06-16T01:12:08.490Z,1.40
2018-06-16T01:13:08.491Z,1.20
2018-06-16T01:14:08.477Z,1.20
2018-06-16T01:15:08.470Z,1.30
2018-06-16T01:16:08.464Z,1.80
2018-06-16T01:17:08.460Z,1.30
2018-06-16T01:18:08.451Z,1.70
2018-06-16T01:19:08.444Z,1.30
2018-06-16T01:20:08.438Z,1.60
2018-06-16T01:21:08.433Z,1.40
2018-06-16T01:22:08.425Z,0.90
2018-06-16T01:23:08.419Z,1.60
2018-06-16T01:24:08.414Z,2.00
2018-06-16T01:25:08.407Z,1.10
2018-06-16T01:26:08.399Z,1.40
2018-06-16T01:27:08.393Z,1.20
2018-06-16T01:28:08.387Z,1.20
2018-06-16T01:29:08.381Z,1.50
2018-06-16T01:30:08.381Z,1.40
2018-06-16T01:31:08.368Z,1.50
2018-06-16T01:32:08.362Z,0.90
2018-06-16T01:33:08.356Z,0.80
2018-06-16T01:34:08.348Z,1.60
2018-06-16T01:35:08.347Z,1.50
2018-06-16T01:36:08.336Z,1.10
2018-06-16T01:37:08.333Z,1.20
2018-06-16T01:38:08.323Z,1.10
2018-06-16T01:39:08.319Z,1.10
2018-06-16T01:40:08.312Z,1.30
2018-06-16T01:41:08.305Z,1.30
2018-06-16T01:42:08.298Z,0.80
2018-06-16T01:43:08.291Z,0.90
2018-06-16T01:44:08.285Z,1.30
2018-06-16T01:45:08.279Z,1.40
2018-06-16T01:46:08.477Z,1.30
2018-06-16T01:47:08.266Z,1.10
2018-06-16T01:48:08.260Z,1.50
2018-06-16T01:49:08.254Z,1.10
2018-06-16T01:50:08.248Z,0.80
2018-06-16T01:51:08.240Z,0.70
2018-06-16T01:52:08.234Z,1.00
2018-06-16T01:53:08.227Z,1.70
2018-06-16T01:54:08.221Z,1.00
2018-06-16T01:55:08.215Z,1.70
2018-06-16T01:56:08.208Z,1.10
2018-06-16T01:57:08.204Z,1.00
2018-06-16T01:58:08.197Z,0.90
2018-06-16T01:59:08.189Z,1.30
2018-06-16T02:00:08.183Z,0.80
2018-06-16T02:01:08.184Z,1.10
2018-06-16T02:02:08.171Z,0.80
2018-06-16T02:03:08.163Z,1.00
2018-06-16T02:04:08.157Z,1.20
2018-06-16T02:05:08.152Z,0.80
2018-06-16T02:06:08.144Z,1.00
2018-06-16T02:07:08.137Z,1.00
2018-06-16T02:08:08.131Z,1.00
2018-06-16T02:09:08.124Z,0.90
2018-06-16T02:10:08.118Z,0.80
2018-06-16T02:11:08.111Z,0.90
2018-06-16T02:12:08.105Z,0.90
2018-06-16T02:13:08.099Z,0.90
2018-06-16T02:14:08.092Z,1.40
2018-06-16T02:15:08.086Z,1.00
2018-06-16T02:16:08.084Z,1.30
2018-06-16T02:17:08.076Z,1.20
2018-06-16T02:18:08.066Z,0.70
2018-06-16T02:19:08.263Z,1.00
2018-06-16T02:20:08.054Z,1.10
2018-06-16T02:21:08.047Z,0.90
2018-06-16T02:22:08.040Z,1.20
2018-06-16T02:23:08.038Z,1.30
2018-06-16T02:24:08.028Z,1.40
2018-06-16T02:25:08.022Z,1.10
2018-06-16T02:26:08.015Z,0.90
2018-06-16T02:27:08.008Z,0.70
2018-06-16T02:28:08.003Z,1.40
2018-06-16T02:29:07.995Z,1.20
2018-06-16T02:30:07.992Z,1.30
2018-06-16T02:31:07.985Z,0.80
2018-06-16T02:32:07.976Z,1.20
2018-06-16T02:33:07.970Z,0.80
2018-06-16T02:34:07.963Z,1.00
2018-06-16T02:35:07.956Z,1.20
2018-06-16T02:36:07.950Z,1.00
2018-06-16T02:37:07.944Z,1.00
2018-06-16T02:38:07.936Z,1.00
2018-06-16T02:39:07.930Z,0.80
2018-06-16T02:40:07.924Z,1.20
2018-06-16T02:41:07.918Z,1.10
2018-06-16T02:42:07.913Z,1.50
2018-06-16T02:43:07.906Z,1.00
2018-06-16T02:44:07.898Z,1.70
2018-06-16T02:45:08.095Z,1.40
2018-06-16T02:46:07.888Z,0.90
2018-06-16T02:47:07.877Z,1.10
2018-06-16T02:48:07.872Z,1.10
2018-06-16T02:49:07.865Z,1.40
2018-06-16T02:50:07.895Z,1.30
2018-06-16T02:51:07.855Z,1.20
2018-06-16T02:52:07.849Z,1.20
2018-06-16T02:53:07.839Z,0.80
2018-06-16T02:54:07.832Z,1.30
2018-06-16T02:55:07.825Z,1.30
2018-06-16T02:56:07.820Z,1.00
2018-06-16T02:57:07.813Z,1.00
2018-06-16T02:58:07.805Z,1.20
2018-06-16T02:59:07.799Z,1.20
2018-06-16T03:00:07.793Z,1.30
2018-06-16T03:01:07.787Z,1.80
2018-06-16T03:02:07.779Z,1.10
2018-06-16T03:03:07.773Z,1.50
2018-06-16T03:04:07.976Z,0.80
2018-06-16T03:05:07.761Z,1.90
2018-06-16T03:06:07.756Z,1.30
2018-06-16T03:07:07.749Z,1.00
2018-06-16T03:08:07.740Z,0.70
2018-06-16T03:09:07.736Z,1.60
2018-06-16T03:10:07.727Z,1.60
2018-06-16T03:11:07.720Z,1.70
2018-06-16T03:12:07.714Z,1.10
2018-06-16T03:13:07.709Z,1.10
2018-06-16T03:14:07.701Z,1.90
2018-06-16T03:15:07.697Z,1.20
2018-06-16T03:16:07.699Z,2.00
2018-06-16T03:17:07.688Z,1.10
2018-06-16T03:18:07.674Z,1.40
2018-06-16T03:19:07.677Z,1.40
2018-06-16T03:20:07.661Z,1.50
2018-06-16T03:21:07.654Z,1.20
2018-06-16T03:22:07.647Z,1.20
2018-06-16T03:23:07.640Z,2.00
2018-06-16T03:24:07.639Z,0.90
2018-06-16T03:25:07.627Z,1.10
2018-06-16T03:26:07.625Z,1.50
2018-06-16T03:27:07.613Z,1.20
2018-06-16T03:28:07.606Z,1.70
2018-06-16T03:29:07.600Z,1.30
2018-06-16T03:30:07.597Z,2.00
2018-06-16T03:31:07.588Z,1.30
2018-06-16T03:32:07.579Z,1.90
2018-06-16T03:33:07.575Z,1.50
2018-06-16T03:34:07.564Z,1.40
2018-06-16T03:35:07.560Z,1.20
2018-06-16T03:36:07.551Z,1.10
2018-06-16T03:37:07.545Z,1.40
2018-06-16T03:38:07.537Z,1.80
2018-06-16T03:39:07.533Z,1.20
2018-06-16T03:40:07.527Z,1.80
2018-06-16T03:41:07.517Z,1.10
2018-06-16T03:42:07.510Z,1.50
2018-06-16T03:43:07.506Z,1.60
2018-06-16T03:44:07.497Z,2.10
2018-06-16T03:45:07.492Z,1.20
2018-06-16T03:46:07.483Z,0.90
2018-06-16T03:47:07.478Z,1.50
2018-06-16T03:48:07.471Z,1.30
2018-06-16T03:49:07.469Z,1.10
2018-06-16T03:50:07.462Z,1.70
2018-06-16T03:51:07.453Z,1.50
2018-06-16T03:52:07.443Z,1.80
2018-06-16T03:53:07.436Z,1.50
2018-06-16T03:54:07.446Z,1.30
2018-06-16T03:55:07.426Z,1.50
2018-06-16T03:56:07.416Z,2.30
2018-06-16T03:57:07.410Z,1.20
2018-06-16T03:58:07.402Z,1.90
2018-06-16T03:59:07.396Z,1.40
2018-06-16T04:00:07.390Z,2.20
2018-06-16T04:01:07.383Z,1.30
2018-06-16T04:02:07.388Z,1.50
2018-06-16T04:03:07.372Z,1.40
2018-06-16T04:04:07.364Z,1.30
2018-06-16T04:05:07.357Z,1.60
2018-06-16T04:06:07.354Z,2.20
2018-06-16T04:07:07.344Z,1.30
2018-06-16T04:08:07.340Z,1.00
2018-06-16T04:09:07.332Z,2.10
2018-06-16T04:10:07.326Z,1.50
2018-06-16T04:11:07.317Z,1.10
2018-06-16T04:12:07.316Z,1.40
2018-06-16T04:13:07.304Z,1.10
2018-06-16T04:14:07.299Z,1.10
2018-06-16T04:15:07.295Z,1.20
2018-06-16T04:16:07.286Z,1.40
2018-06-16T04:17:07.279Z,1.70
2018-06-16T04:18:07.271Z,1.50
2018-06-16T04:19:07.269Z,1.40
2018-06-16T04:20:07.263Z,1.30
2018-06-16T04:21:07.253Z,0.90
2018-06-16T04:22:07.247Z,1.40
2018-06-16T04:23:07.242Z,1.70
2018-06-16T04:24:07.391Z,1.00
2018-06-16T04:25:07.228Z,1.10
2018-06-16T04:26:07.222Z,1.50
2018-06-16T04:27:07.218Z,1.40
2018-06-16T04:28:07.210Z,1.80
2018-06-16T04:29:07.209Z,1.60
2018-06-16T04:30:07.399Z,2.00
2018-06-16T04:31:07.393Z,1.20
2018-06-16T04:32:07.186Z,1.20
2018-06-16T04:33:07.183Z,1.50
2018-06-16T04:34:07.174Z,1.20
2018-06-16T04:35:07.174Z,1.60
2018-06-16T04:36:07.162Z,1.50
2018-06-16T04:37:07.155Z,1.90
2018-06-16T04:38:07.149Z,1.30
2018-06-16T04:39:07.143Z,1.80
2018-06-16T04:40:07.142Z,1.40
2018-06-16T04:41:07.133Z,1.70
2018-06-16T04:42:07.125Z,1.90
2018-06-16T04:43:07.120Z,1.60
2018-06-16T04:44:07.115Z,1.20
2018-06-16T04:45:07.109Z,1.10
2018-06-16T04:46:07.112Z,1.70
2018-06-16T04:47:07.137Z,2.10
2018-06-16T04:48:07.091Z,1.30
2018-06-16T04:49:07.091Z,1.20
2018-06-16T04:50:07.079Z,1.20
2018-06-16T04:51:07.074Z,1.70
2018-06-16T04:52:07.072Z,1.80
2018-06-16T04:53:07.063Z,1.30
2018-06-16T04:54:07.056Z,1.60
2018-06-16T04:55:07.058Z,1.40
2018-06-16T04:56:07.251Z,1.70
2018-06-16T04:57:07.041Z,1.60
2018-06-16T04:58:07.038Z,1.60
2018-06-16T04:59:07.029Z,1.40
2018-06-16T05:00:07.023Z,1.10
2018-06-16T05:01:07.017Z,2.00
2018-06-16T05:02:07.012Z,1.20
2018-06-16T05:03:07.005Z,1.50
2018-06-16T05:04:07.005Z,1.80
2018-06-16T05:05:06.995Z,1.70
2018-06-16T05:06:06.991Z,1.80
2018-06-16T05:07:06.982Z,1.00
2018-06-16T05:08:06.977Z,1.70
2018-06-16T05:09:06.972Z,1.50
2018-06-16T05:10:06.965Z,1.30
2018-06-16T05:11:06.961Z,1.30
2018-06-16T05:12:06.955Z,1.30
2018-06-16T05:13:07.158Z,3.30
2018-06-16T05:14:06.942Z,1.60
2018-06-16T05:15:06.939Z,1.60
2018-06-16T05:16:06.933Z,1.90
2018-06-16T05:17:06.934Z,2.20
2018-06-16T05:18:06.926Z,1.70
2018-06-16T05:19:06.916Z,2.20
2018-06-16T05:20:06.916Z,1.80
2018-06-16T05:21:06.909Z,2.20
2018-06-16T05:22:06.903Z,1.50
2018-06-16T05:23:06.901Z,1.60
2018-06-16T05:24:06.891Z,1.90
2018-06-16T05:25:06.888Z,1.50
2018-06-16T05:26:06.884Z,1.50
2018-06-16T05:27:06.879Z,2.30
2018-06-16T05:28:06.870Z,1.70
2018-06-16T05:29:06.869Z,2.00
2018-06-16T05:30:06.861Z,2.30
2018-06-16T05:31:06.856Z,2.50
2018-06-16T05:32:06.851Z,1.80
2018-06-16T05:33:06.847Z,1.90
2018-06-16T05:34:06.841Z,1.70
2018-06-16T05:35:06.837Z,2.20
2018-06-16T05:36:06.832Z,1.60
2018-06-16T05:37:06.828Z,1.90
2018-06-16T05:38:06.827Z,2.70
2018-06-16T05:39:06.819Z,2.10
2018-06-16T05:40:06.820Z,2.80
2018-06-16T05:41:06.815Z,2.50
2018-06-16T05:42:06.805Z,3.40
2018-06-16T05:43:06.805Z,2.10
2018-06-16T05:44:06.799Z,2.10
2018-06-16T05:45:06.794Z,2.50
2018-06-16T05:46:06.792Z,2.60
2018-06-16T05:47:06.785Z,2.30
2018-06-16T05:48:06.782Z,2.60
2018-06-16T05:49:06.783Z,2.60
2018-06-16T05:50:06.774Z,1.80
2018-06-16T05:51:06.770Z,1.80
2018-06-16T05:52:06.767Z,2.30
2018-06-16T05:53:06.771Z,2.50
2018-06-16T05:54:06.786Z,2.50
2018-06-16T05:55:06.761Z,2.60
2018-06-16T05:56:06.754Z,2.10
2018-06-16T05:57:06.752Z,3.00
2018-06-16T05:58:06.746Z,2.50
2018-06-16T05:59:06.743Z,2.80
2018-06-16T06:00:06.744Z,3.20
2018-06-16T06:01:06.741Z,3.00
2018-06-16T06:02:06.733Z,2.70
2018-06-16T06:03:06.731Z,2.50
2018-06-16T06:04:06.726Z,3.00
2018-06-16T06:05:06.723Z,2.70
2018-06-16T06:06:06.724Z,2.90
2018-06-16T06:07:06.722Z,2.60
2018-06-16T06:08:06.718Z,2.70
2018-06-16T06:09:06.710Z,2.80
2018-06-16T06:10:06.708Z,2.70
2018-06-16T06:11:06.704Z,2.90
2018-06-16T06:12:06.706Z,3.80
2018-06-16T06:13:06.718Z,3.10
2018-06-16T06:14:06.692Z,3.30
2018-06-16T06:15:06.690Z,3.10
2018-06-16T06:16:06.686Z,3.00
2018-06-16T06:17:06.683Z,2.90
2018-06-16T06:18:06.682Z,3.70
2018-06-16T06:19:06.676Z,3.70
2018-06-16T06:20:06.675Z,2.90
2018-06-16T06:21:06.671Z,2.80
2018-06-16T06:22:06.665Z,4.30
2018-06-16T06:23:06.670Z,3.80
2018-06-16T06:24:06.660Z,2.90
2018-06-16T06:25:06.657Z,3.20
2018-06-16T06:27:06.650Z,3.40
2018-06-16T06:28:06.652Z,3.60
2018-06-16T06:29:06.647Z,3.60
2018-06-16T06:30:06.640Z,3.40
2018-06-16T06:31:06.638Z,3.90
2018-06-16T06:32:06.685Z,3.80
2018-06-16T06:33:06.633Z,3.40
2018-06-16T06:34:06.629Z,4.30
2018-06-16T06:35:06.634Z,3.80
2018-06-16T06:36:06.627Z,4.40
2018-06-16T06:37:06.649Z,4.20
2018-06-16T06:38:06.621Z,3.90
2018-06-16T06:39:06.617Z,3.80
2018-06-16T06:40:06.619Z,4.00
2018-06-16T06:41:06.613Z,3.50
2018-06-16T06:42:06.614Z,4.40
2018-06-16T06:43:06.608Z,4.60
2018-06-16T06:44:06.606Z,4.00
2018-06-16T06:45:06.607Z,3.70
2018-06-16T06:46:06.606Z,4.00
2018-06-16T06:47:06.600Z,4.30
2018-06-16T06:48:06.598Z,3.70
2018-06-16T06:49:06.596Z,4.10
2018-06-16T06:50:06.594Z,3.80
2018-06-16T06:51:06.592Z,4.10
2018-06-16T06:52:06.590Z,4.10
2018-06-16T06:53:06.589Z,3.60
2018-06-16T06:54:06.587Z,3.50
2018-06-16T06:55:06.587Z,3.40
2018-06-16T06:56:06.583Z,3.70
2018-06-16T06:57:06.580Z,3.90
2018-06-16T06:58:06.581Z,3.60
2018-06-16T06:59:06.577Z,3.60
2018-06-16T07:00:06.576Z,3.70
2018-06-16T07:01:06.580Z,3.60
2018-06-16T07:02:06.574Z,3.90
2018-06-16T07:03:06.571Z,4.00
2018-06-16T07:04:06.612Z,3.80
2018-06-16T07:05:06.566Z,3.20
2018-06-16T07:06:06.564Z,3.90
2018-06-16T07:07:06.563Z,3.70
2018-06-16T07:08:06.562Z,3.50
2018-06-16T07:09:06.564Z,3.40
2018-06-16T07:10:06.558Z,3.90
2018-06-16T07:11:06.556Z,3.50
2018-06-16T07:12:06.964Z,2.90
2018-06-16T07:13:06.554Z,3.60
2018-06-16T07:14:06.552Z,4.40
2018-06-16T07:15:06.552Z,3.30
2018-06-16T07:16:06.551Z,3.20
2018-06-16T07:17:06.550Z,3.40
2018-06-16T07:18:06.549Z,3.90
2018-06-16T07:19:06.550Z,4.10
2018-06-16T07:20:06.549Z,3.80
2018-06-16T07:21:06.549Z,3.70
2018-06-16T07:22:06.550Z,3.70
2018-06-16T07:23:06.549Z,3.10
2018-06-16T07:24:06.550Z,3.10
2018-06-16T07:25:06.549Z,3.20
2018-06-16T07:26:06.548Z,3.60
2018-06-16T07:27:06.575Z,3.50
2018-06-16T07:28:06.549Z,3.10
2018-06-16T07:29:06.583Z,3.20
2018-06-16T07:30:06.549Z,3.60
2018-06-16T07:32:06.558Z,3.40
2018-06-16T07:33:06.562Z,3.60
2018-06-16T07:34:06.550Z,3.70
2018-06-16T07:35:06.552Z,3.40
2018-06-16T07:36:06.581Z,2.90
2018-06-16T07:37:06.554Z,4.60
2018-06-16T07:38:06.553Z,3.20
2018-06-16T07:39:06.554Z,4.00
2018-06-16T07:40:06.555Z,2.90
2018-06-16T07:41:06.558Z,4.10
2018-06-16T07:42:06.555Z,4.10
2018-06-16T07:43:06.763Z,3.70
2018-06-16T07:44:06.556Z,3.30
2018-06-16T07:45:06.563Z,3.10
2018-06-16T07:46:06.557Z,3.80
2018-06-16T07:47:06.560Z,3.50
2018-06-16T07:48:06.559Z,3.50
2018-06-16T07:49:06.560Z,3.30
2018-06-16T07:50:06.561Z,4.30
2018-06-16T07:51:06.562Z,4.00
2018-06-16T07:52:06.568Z,3.90
2018-06-16T07:53:06.565Z,3.80
2018-06-16T07:54:06.568Z,3.50
2018-06-16T07:55:06.770Z,3.00
2018-06-16T07:56:06.574Z,3.20
2018-06-16T07:57:06.572Z,4.20
2018-06-16T07:58:06.578Z,3.70
2018-06-16T07:59:06.574Z,3.50
2018-06-16T08:00:06.577Z,3.50
2018-06-16T08:01:06.578Z,3.00
2018-06-16T08:02:06.578Z,4.10
2018-06-16T08:03:06.580Z,3.20
2018-06-16T08:04:06.587Z,3.90
2018-06-16T08:05:06.585Z,3.70
2018-06-16T08:06:06.591Z,4.00
2018-06-16T08:07:06.591Z,3.50
2018-06-16T08:08:06.592Z,4.50
2018-06-16T08:09:06.599Z,3.30
2018-06-16T08:10:06.600Z,4.50
2018-06-16T08:11:06.603Z,3.10
2018-06-16T08:12:06.618Z,3.00
2018-06-16T08:13:06.613Z,2.90
2018-06-16T08:14:06.820Z,2.70
2018-06-16T08:15:06.627Z,3.60
2018-06-16T08:16:06.631Z,2.60
2018-06-16T08:17:06.637Z,2.90
2018-06-16T08:18:06.724Z,2.90
2018-06-16T08:19:06.651Z,3.50
2018-06-16T08:20:06.666Z,2.40
2018-06-16T08:21:06.667Z,2.20
2018-06-16T08:22:06.674Z,2.70
2018-06-16T08:23:06.683Z,2.30
2018-06-16T08:24:06.894Z,2.50
2018-06-16T08:25:06.706Z,2.30
2018-06-16T08:26:06.711Z,2.90
2018-06-16T08:27:06.719Z,2.90
2018-06-16T08:28:06.728Z,2.80
2018-06-16T08:29:06.738Z,2.40
2018-06-16T08:30:06.754Z,2.30
2018-06-16T08:31:06.759Z,2.10
2018-06-16T08:32:06.773Z,2.50
2018-06-16T08:33:06.779Z,2.10
2018-06-16T08:34:06.780Z,2.20
2018-06-16T08:35:06.789Z,2.40
2018-06-16T08:36:06.796Z,2.20
2018-06-16T08:37:06.811Z,2.70
2018-06-16T08:38:06.809Z,2.00
2018-06-16T08:39:06.814Z,2.10
2018-06-16T08:40:06.823Z,2.30
2018-06-16T08:41:06.827Z,1.80
2018-06-16T08:42:06.831Z,2.40
2018-06-16T08:43:06.840Z,2.20
2018-06-16T08:44:06.841Z,1.80
2018-06-16T08:45:06.849Z,2.30
2018-06-16T08:46:06.850Z,1.90
2018-06-16T08:47:06.852Z,2.40
2018-06-16T08:48:06.861Z,2.20
2018-06-16T08:49:06.857Z,2.30
2018-06-16T08:50:06.860Z,2.40
2018-06-16T08:51:06.867Z,2.00
2018-06-16T08:52:07.071Z,2.50
2018-06-16T08:53:06.866Z,3.30
2018-06-16T08:54:06.873Z,3.50
2018-06-16T08:55:06.869Z,2.40
2018-06-16T08:56:06.873Z,3.00
2018-06-16T08:57:06.874Z,2.40
2018-06-16T08:58:06.880Z,3.20
2018-06-16T08:59:06.878Z,2.40
2018-06-16T09:00:06.886Z,2.40
2018-06-16T09:01:06.885Z,2.40
2018-06-16T09:02:06.889Z,1.90
2018-06-16T09:03:06.894Z,2.60
2018-06-16T09:04:06.899Z,2.40
2018-06-16T09:05:06.906Z,2.70
2018-06-16T09:06:06.913Z,2.50
2018-06-16T09:07:06.917Z,2.10
2018-06-16T09:08:06.924Z,2.10
2018-06-16T09:09:06.934Z,2.20
2018-06-16T09:10:06.939Z,1.50
2018-06-16T09:11:06.947Z,2.10
2018-06-16T09:12:06.955Z,2.00
2018-06-16T09:13:06.964Z,2.10
2018-06-16T09:14:06.972Z,2.10
2018-06-16T09:15:06.981Z,1.80
2018-06-16T09:16:07.194Z,1.60
2018-06-16T09:17:07.005Z,2.00
2018-06-16T09:18:07.012Z,1.80
2018-06-16T09:19:07.023Z,1.70
2018-06-16T09:20:07.238Z,1.70
2018-06-16T09:21:07.045Z,2.40
2018-06-16T09:22:07.056Z,2.20
2018-06-16T09:23:07.066Z,1.60
2018-06-16T09:24:07.081Z,1.90
2018-06-16T09:25:07.099Z,2.30
2018-06-16T09:26:07.106Z,2.40
2018-06-16T09:27:07.112Z,1.80
2018-06-16T09:28:07.186Z,2.20
2018-06-16T09:29:07.137Z,1.70
2018-06-16T09:30:07.147Z,1.90
2018-06-16T09:31:07.160Z,2.10
2018-06-16T09:33:07.185Z,2.00
2018-06-16T09:34:07.197Z,2.10
2018-06-16T09:35:07.214Z,2.40
2018-06-16T09:36:07.270Z,2.60
2018-06-16T09:37:07.238Z,2.20
2018-06-16T09:38:07.245Z,1.80
2018-06-16T09:39:07.263Z,1.40
2018-06-16T09:40:07.269Z,1.60
2018-06-16T09:41:07.281Z,1.60
2018-06-16T09:42:07.354Z,1.50
2018-06-16T09:43:07.310Z,1.40
2018-06-16T09:44:07.318Z,1.50
2018-06-16T09:45:07.322Z,1.50
2018-06-16T09:46:07.327Z,1.70
2018-06-16T09:47:07.338Z,1.00
2018-06-16T09:48:07.407Z,1.20
2018-06-16T09:49:07.353Z,0.90
2018-06-16T09:50:07.360Z,1.20
2018-06-16T09:51:07.370Z,1.00
2018-06-16T09:52:07.380Z,1.70
2018-06-16T09:53:07.386Z,1.00
2018-06-16T09:54:07.388Z,0.90
2018-06-16T09:55:07.395Z,1.10
2018-06-16T09:56:07.406Z,1.10
2018-06-16T09:57:07.408Z,1.00
2018-06-16T09:58:07.413Z,1.30
2018-06-16T09:59:07.419Z,0.80
2018-06-16T10:00:07.425Z,1.20
2018-06-16T10:01:07.432Z,1.00
2018-06-16T10:02:07.436Z,0.90
2018-06-16T10:03:07.443Z,0.90
2018-06-16T10:04:07.448Z,0.80
2018-06-16T10:05:07.467Z,0.90
2018-06-16T10:06:07.464Z,1.10
2018-06-16T10:07:07.468Z,1.00
2018-06-16T10:08:07.477Z,1.20
2018-06-16T10:09:07.482Z,1.00
2018-06-16T10:10:07.691Z,0.80
2018-06-16T10:11:07.497Z,1.20
2018-06-16T10:12:07.510Z,0.80
2018-06-16T10:13:07.514Z,1.20
2018-06-16T10:14:07.522Z,1.10
2018-06-16T10:15:07.531Z,1.00
2018-06-16T10:16:07.544Z,0.90
2018-06-16T10:17:07.551Z,1.20
2018-06-16T10:18:07.562Z,0.80
2018-06-16T10:19:07.570Z,0.80
2018-06-16T10:20:07.580Z,1.00
2018-06-16T10:21:07.593Z,1.30
2018-06-16T10:22:07.601Z,1.40
2018-06-16T10:23:07.609Z,1.10
2018-06-16T10:24:07.619Z,1.10
2018-06-16T10:25:07.629Z,1.10
2018-06-16T10:26:07.637Z,0.90
2018-06-16T10:27:07.647Z,1.20
2018-06-16T10:28:07.665Z,1.50
2018-06-16T10:29:07.671Z,1.20
2018-06-16T10:30:07.677Z,2.50
2018-06-16T10:31:07.692Z,1.20
2018-06-16T10:32:07.700Z,1.20
2018-06-16T10:33:07.714Z,1.10
2018-06-16T10:34:07.722Z,1.30
2018-06-16T10:35:07.733Z,1.80
2018-06-16T10:36:07.745Z,1.00
2018-06-16T10:37:07.757Z,1.10
2018-06-16T10:38:07.765Z,1.30
2018-06-16T10:39:07.775Z,1.00
2018-06-16T10:40:07.788Z,1.10
2018-06-16T10:41:07.796Z,1.00
2018-06-16T10:42:07.806Z,1.10
2018-06-16T10:43:07.812Z,1.10
2018-06-16T10:44:07.822Z,0.90
2018-06-16T10:45:07.833Z,1.10
2018-06-16T10:46:07.837Z,1.00
2018-06-16T10:47:07.850Z,0.90
2018-06-16T10:48:07.854Z,0.90
2018-06-16T10:49:07.865Z,1.20
2018-06-16T10:50:07.868Z,1.00
2018-06-16T10:51:07.875Z,1.10
2018-06-16T10:52:07.879Z,1.00
2018-06-16T10:53:07.890Z,1.20
2018-06-16T10:54:07.893Z,1.30
2018-06-16T10:55:07.904Z,0.70
2018-06-16T10:56:07.912Z,1.30
2018-06-16T10:57:07.921Z,1.10
2018-06-16T10:58:07.932Z,1.20
2018-06-16T10:59:07.939Z,1.30
2018-06-16T11:00:07.949Z,0.90
2018-06-16T11:01:07.957Z,1.40
2018-06-16T11:02:07.966Z,1.10
2018-06-16T11:03:07.977Z,1.50
2018-06-16T11:04:07.979Z,0.90
2018-06-16T11:05:07.994Z,0.80
2018-06-16T11:06:07.997Z,0.90
2018-06-16T11:07:07.998Z,0.80
2018-06-16T11:08:08.005Z,1.40
2018-06-16T11:09:08.010Z,1.20
2018-06-16T11:10:08.015Z,0.90
2018-06-16T11:11:08.023Z,0.90
2018-06-16T11:12:08.024Z,1.20
2018-06-16T11:13:08.029Z,1.40
2018-06-16T11:14:08.031Z,0.70
2018-06-16T11:15:08.034Z,1.20
2018-06-16T11:16:08.038Z,1.10
2018-06-16T11:17:08.040Z,1.10
2018-06-16T11:18:08.248Z,1.10
2018-06-16T11:19:08.067Z,1.00
2018-06-16T11:20:08.048Z,1.50
2018-06-16T11:21:08.054Z,1.20
2018-06-16T11:22:08.050Z,1.50
2018-06-16T11:23:08.056Z,1.20
2018-06-16T11:24:08.058Z,1.80
2018-06-16T11:25:08.058Z,1.50
2018-06-16T11:26:08.063Z,1.10
2018-06-16T11:27:08.066Z,1.60
2018-06-16T11:28:08.072Z,1.20
2018-06-16T11:29:08.081Z,1.40
2018-06-16T11:30:08.083Z,1.50
2018-06-16T11:31:08.094Z,2.10
2018-06-16T11:32:08.097Z,1.40
2018-06-16T11:33:08.107Z,1.50
2018-06-16T11:34:08.114Z,1.60
2018-06-16T11:35:08.119Z,1.30
2018-06-16T11:36:08.126Z,1.80
2018-06-16T11:37:08.135Z,1.80
2018-06-16T11:38:08.143Z,1.20
2018-06-16T11:39:08.150Z,1.60
2018-06-16T11:40:08.155Z,1.90
2018-06-16T11:41:08.167Z,1.60
2018-06-16T11:42:08.169Z,1.30
2018-06-16T11:43:08.177Z,2.20
2018-06-16T11:44:08.185Z,1.40
2018-06-16T11:45:08.196Z,1.70
2018-06-16T11:47:08.211Z,1.70
2018-06-16T11:48:08.216Z,2.20
2018-06-16T11:49:08.226Z,1.30
2018-06-16T11:50:08.232Z,1.20
2018-06-16T11:51:08.233Z,1.60
2018-06-16T11:52:08.239Z,1.40
2018-06-16T11:53:08.245Z,1.40
2018-06-16T11:54:08.249Z,1.70
2018-06-16T11:55:08.257Z,1.50
2018-06-16T11:56:08.264Z,1.50
2018-06-16T11:57:08.273Z,1.30
2018-06-16T11:58:08.274Z,1.80
2018-06-16T11:59:08.281Z,1.70
2018-06-16T12:00:08.293Z,1.80
2018-06-16T12:01:08.297Z,1.60
2018-06-16T12:02:08.304Z,1.40
2018-06-16T12:03:08.340Z,1.40
2018-06-16T12:04:08.318Z,1.70
2018-06-16T12:05:08.331Z,1.80
2018-06-16T12:06:08.337Z,2.10
2018-06-16T12:07:08.343Z,1.50
2018-06-16T12:08:08.352Z,1.60
2018-06-16T12:09:08.367Z,1.80
2018-06-16T12:10:08.371Z,1.70
2018-06-16T12:11:08.380Z,2.00
2018-06-16T12:12:08.391Z,1.70
2018-06-16T12:13:08.604Z,1.30
2018-06-16T12:14:08.411Z,2.10
2018-06-16T12:15:08.422Z,1.70
2018-06-16T12:16:08.432Z,1.70
2018-06-16T12:17:08.445Z,1.60
2018-06-16T12:18:08.456Z,1.60
2018-06-16T12:19:08.468Z,1.70
2018-06-16T12:20:08.475Z,1.60
2018-06-16T12:21:08.486Z,1.40
2018-06-16T12:22:08.497Z,1.80
2018-06-16T12:23:08.712Z,1.80
2018-06-16T12:24:08.521Z,1.70
2018-06-16T12:25:08.533Z,1.70
2018-06-16T12:26:08.547Z,1.60
2018-06-16T12:27:08.761Z,1.50
2018-06-16T12:28:08.570Z,1.70
2018-06-16T12:29:08.583Z,2.00
2018-06-16T12:30:08.601Z,1.50
2018-06-16T12:31:08.609Z,2.00
2018-06-16T12:32:08.620Z,1.70
2018-06-16T12:33:08.632Z,1.90
2018-06-16T12:34:08.642Z,1.60
2018-06-16T12:35:08.654Z,2.10
2018-06-16T12:36:08.664Z,1.70
2018-06-16T12:37:08.684Z,1.50
2018-06-16T12:38:08.684Z,1.50
2018-06-16T12:39:08.694Z,1.80
2018-06-16T12:40:08.706Z,1.50
2018-06-16T12:41:08.715Z,1.60
2018-06-16T12:42:08.722Z,1.70
2018-06-16T12:43:08.733Z,1.10
2018-06-16T12:44:08.740Z,1.50
2018-06-16T12:45:08.749Z,1.60
2018-06-16T12:46:08.757Z,1.10
2018-06-16T12:47:08.765Z,1.80
2018-06-16T12:48:08.780Z,1.90
2018-06-16T12:49:08.784Z,1.80
2018-06-16T12:50:08.792Z,1.30
2018-06-16T12:51:08.802Z,1.60
2018-06-16T12:52:08.811Z,1.60
2018-06-16T12:53:08.820Z,1.70
2018-06-16T12:54:08.837Z,2.00
2018-06-16T12:55:08.842Z,1.30
2018-06-16T12:56:08.852Z,1.70
2018-06-16T12:57:08.867Z,1.80
2018-06-16T12:58:08.867Z,1.90
2018-06-16T12:59:08.881Z,1.80
2018-06-16T13:00:08.890Z,1.50
2018-06-16T13:01:08.897Z,1.40
2018-06-16T13:02:08.908Z,1.70
2018-06-16T13:03:08.920Z,1.60
2018-06-16T13:04:08.929Z,1.80
2018-06-16T13:05:08.940Z,1.50
2018-06-16T13:06:08.952Z,1.40
2018-06-16T13:07:08.966Z,1.80
2018-06-16T13:08:08.975Z,1.80
2018-06-16T13:09:08.986Z,1.30
2018-06-16T13:10:09.003Z,1.40
2018-06-16T13:11:09.209Z,1.20
2018-06-16T13:12:09.219Z,1.30
2018-06-16T13:13:09.027Z,1.30
2018-06-16T13:14:09.040Z,1.60
2018-06-16T13:15:09.044Z,1.60
2018-06-16T13:16:09.055Z,2.10
2018-06-16T13:17:09.065Z,1.40
2018-06-16T13:18:09.129Z,1.50
2018-06-16T13:19:09.074Z,1.80
2018-06-16T13:20:09.083Z,1.50
2018-06-16T13:21:09.093Z,1.50
2018-06-16T13:22:09.099Z,1.40